Time;durP1;ratioP1;P1;durP2;ratioP2;P2;SDS_P1;SDS_P2;PMS_P1;PMS_P2;Temp;Humidity;BMP_temperature;BMP_pressure;BME280_temperature;BME280_humidity;BME280_pressure;Samples;Min_cycle;Max_cycle;Signal;HPM_P1;HPM_P2
2023/03/09 00:01:25;;;;;;;;;;;1.90;99.90;;;;;;6246633;22;20016;-79
2023/03/09 00:03:51;;;;;;;51.75;35.72;;;1.90;99.90;;;;;;6247037;22;19919;-79
2023/03/09 00:06:17;;;;;;;43.63;31.63;;;1.90;99.90;;;;;;6245803;22;20004;-79
2023/03/09 00:08:43;;;;;;;34.47;26.23;;;1.90;99.90;;;;;;6246763;22;20110;-79
2023/03/09 00:11:09;;;;;;;28.73;23.35;;;1.90;99.90;;;;;;6273945;22;20015;-79
2023/03/09 00:13:35;;;;;;;39.70;27.40;;;1.90;99.90;;;;;;6246391;22;20011;-79
2023/03/09 00:16:11;;;;;;;30.63;20.85;;;1.90;99.90;;;;;;6220947;22;20414;-79
2023/03/09 00:18:37;;;;;;;59.20;37.13;;;1.90;99.90;;;;;;6220911;22;20016;-79
2023/03/09 00:21:03;;;;;;;29.75;22.30;;;1.90;99.90;;;;;;6220344;22;20457;-79
2023/03/09 00:23:29;;;;;;;32.97;24.23;;;1.90;99.90;;;;;;6246352;22;20011;-79
2023/03/09 00:25:54;;;;;;;28.67;21.98;;;1.90;99.90;;;;;;6246240;22;20022;-79
2023/03/09 00:28:20;;;;;;;27.80;22.08;;;1.80;99.90;;;;;;6246254;22;20090;-79
2023/03/09 00:30:45;;;;;;;29.08;21.30;;;1.80;99.90;;;;;;6245988;22;20031;-79
2023/03/09 00:33:11;;;;;;;31.02;23.73;;;1.80;99.90;;;;;;6246236;22;20024;-79
2023/03/09 00:35:36;;;;;;;27.77;22.30;;;1.80;99.90;;;;;;6245649;22;20091;-79
2023/03/09 00:38:03;;;;;;;25.45;20.27;;;1.80;99.90;;;;;;6273323;22;20072;-79
2023/03/09 00:40:29;;;;;;;26.65;21.17;;;1.80;99.90;;;;;;6246178;22;20014;-79
2023/03/09 00:42:55;;;;;;;23.60;18.02;;;1.80;99.90;;;;;;6273783;22;20320;-79
2023/03/09 00:45:22;;;;;;;31.48;23.65;;;1.80;99.90;;;;;;6246354;22;20084;-79
2023/03/09 00:47:51;;;;;;;26.70;19.38;;;1.80;99.90;;;;;;6245965;22;20012;-78
2023/03/09 00:50:16;;;;;;;28.73;20.65;;;2.60;99.90;;;;;;6220297;22;20341;-79
2023/03/09 00:52:42;;;;;;;21.88;17.80;;;1.80;99.90;;;;;;6246132;22;20050;-79
2023/03/09 00:55:08;;;;;;;32.33;22.88;;;1.80;99.90;;;;;;6273743;22;20122;-79
2023/03/09 00:57:34;;;;;;;32.33;23.08;;;1.80;99.90;;;;;;6246132;22;20011;-79
2023/03/09 01:00:00;;;;;;;43.10;29.17;;;1.70;99.90;;;;;;6246031;22;20038;-79
2023/03/09 01:02:27;;;;;;;28.15;20.90;;;1.70;99.90;;;;;;6246045;22;20015;-78
2023/03/09 01:04:53;;;;;;;26.35;19.88;;;1.70;99.90;;;;;;6273168;22;20170;-79
2023/03/09 01:07:19;;;;;;;29.02;23.17;;;1.70;99.90;;;;;;6246102;22;20134;-79
2023/03/09 01:09:44;;;;;;;23.85;18.83;;;1.70;99.90;;;;;;6246061;22;20019;-79
2023/03/09 01:12:10;;;;;;;23.58;17.73;;;1.70;99.90;;;;;;6273615;22;20061;-79
2023/03/09 01:14:36;;;;;;;25.35;17.48;;;1.60;99.90;;;;;;6275423;22;20014;-79
2023/03/09 01:17:01;;;;;;;20.55;16.73;;;1.70;99.90;;;;;;6247816;22;20015;-79
2023/03/09 01:19:28;;;;;;;18.90;15.85;;;1.60;99.90;;;;;;6247520;22;20012;-79
2023/03/09 01:21:53;;;;;;;19.95;16.15;;;1.60;99.90;;;;;;6247882;22;20008;-79
2023/03/09 01:24:19;;;;;;;22.88;16.67;;;1.50;99.90;;;;;;6275632;22;20422;-79
2023/03/09 01:26:45;;;;;;;20.95;16.00;;;1.50;99.90;;;;;;6275454;22;20022;-79
2023/03/09 01:29:10;;;;;;;18.92;15.60;;;1.50;99.90;;;;;;6275261;22;20287;-79
2023/03/09 01:31:36;;;;;;;20.08;15.50;;;1.40;99.90;;;;;;6222354;22;20031;-78
2023/03/09 01:34:01;;;;;;;20.52;15.98;;;1.40;99.90;;;;;;6274990;22;20007;-79
2023/03/09 01:36:27;;;;;;;23.55;15.85;;;1.40;99.90;;;;;;6247800;22;20343;-79
2023/03/09 01:38:53;;;;;;;19.08;16.02;;;1.30;99.90;;;;;;6247975;22;20062;-79
2023/03/09 01:41:20;;;;;;;22.48;16.85;;;1.30;99.90;;;;;;6275125;22;20321;-79
2023/03/09 01:43:48;;;;;;;20.63;16.63;;;1.30;99.90;;;;;;6275250;22;20012;-78
2023/03/09 01:46:55;;;;;;;21.25;16.33;;;1.30;99.90;;;;;;6247242;22;20391;-79
2023/03/09 01:49:40;;;;;;;21.45;16.58;;;1.20;99.90;;;;;;6275420;22;20022;-79
2023/03/09 01:52:24;;;;;;;22.08;17.40;;;1.20;99.90;;;;;;6275251;22;20380;-79
2023/03/09 01:55:12;;;;;;;21.95;17.45;;;1.20;99.90;;;;;;6275181;22;20014;-79
2023/03/09 01:57:46;;;;;;;21.88;16.98;;;1.10;99.90;;;;;;6275038;22;20008;-80
2023/03/09 02:00:18;;;;;;;24.20;15.77;;;1.10;99.90;;;;;;6275148;22;20076;-79
2023/03/09 02:02:52;;;;;;;19.95;16.20;;;1.10;99.90;;;;;;6247109;22;20012;-79
2023/03/09 02:05:49;;;;;;;20.20;16.25;;;1.10;99.90;;;;;;6247884;22;20012;-79
2023/03/09 02:08:17;;;;;;;19.27;15.52;;;1.00;99.90;;;;;;6231867;22;20022;-79
2023/03/09 02:11:03;;;;;;;21.05;16.55;;;1.00;99.90;;;;;;6247474;22;20438;-80
2023/03/09 02:13:33;;;;;;;19.63;15.85;;;0.90;99.90;;;;;;6247573;22;20016;-79
2023/03/09 02:15:59;;;;;;;19.60;15.43;;;0.90;99.90;;;;;;6246960;22;20057;-79
2023/03/09 02:18:25;;;;;;;23.45;16.23;;;0.90;99.90;;;;;;6247291;22;20015;-79
2023/03/09 02:21:07;;;;;;;21.52;16.10;;;0.90;99.90;;;;;;6274499;22;20497;-79
2023/03/09 02:23:39;;;;;;;21.80;16.30;;;0.90;99.90;;;;;;6247738;22;20083;-79
2023/03/09 02:26:21;;;;;;;20.50;16.75;;;0.80;99.90;;;;;;6246924;22;20019;-79
2023/03/09 02:28:47;;;;;;;21.77;16.13;;;0.80;99.90;;;;;;6275010;22;20004;-79
2023/03/09 02:31:14;;;;;;;20.60;16.55;;;0.80;99.90;;;;;;6273941;22;20403;-79
2023/03/09 02:33:40;;;;;;;20.35;16.50;;;0.70;99.90;;;;;;6247397;22;20012;-79
2023/03/09 02:36:06;;;;;;;19.20;16.48;;;0.80;99.90;;;;;;6247011;22;20008;-79
2023/03/09 02:38:32;;;;;;;21.50;17.25;;;0.70;99.90;;;;;;6246879;22;20446;-79
2023/03/09 02:41:00;;;;;;;21.20;17.73;;;0.70;99.90;;;;;;6274732;22;20064;-79
2023/03/09 02:43:30;;;;;;;23.52;18.02;;;0.70;99.90;;;;;;6246933;22;20043;-79
2023/03/09 02:45:56;;;;;;;21.00;17.88;;;0.80;99.90;;;;;;6274020;22;20012;-79
2023/03/09 02:48:22;;;;;;;22.27;18.25;;;0.80;99.90;;;;;;6247335;22;20012;-79
2023/03/09 02:50:47;;;;;;;23.92;18.63;;;0.80;99.90;;;;;;6274294;22;20065;-79
2023/03/09 02:53:13;;;;;;;25.05;19.75;;;0.80;99.90;;;;;;6247222;22;20399;-79
2023/03/09 02:55:38;;;;;;;23.98;19.10;;;0.90;99.90;;;;;;6221731;22;20012;-79
2023/03/09 02:58:04;;;;;;;21.48;18.63;;;0.80;99.90;;;;;;6221778;22;20016;-79
2023/03/09 03:00:30;;;;;;;23.52;19.65;;;0.80;99.90;;;;;;6221220;22;20077;-79
2023/03/09 03:02:55;;;;;;;24.80;19.23;;;0.80;99.90;;;;;;6222063;22;20012;-79
2023/03/09 03:05:21;;;;;;;26.15;20.80;;;0.80;99.90;;;;;;6221669;22;20016;-79
2023/03/09 03:07:47;;;;;;;31.48;22.17;;;0.80;99.90;;;;;;6274480;22;20310;-79
2023/03/09 03:10:13;;;;;;;27.67;22.70;;;0.90;99.90;;;;;;6247223;22;20073;-79
2023/03/09 03:12:39;;;;;;;27.02;21.13;;;0.80;99.90;;;;;;6246748;22;20012;-80
2023/03/09 03:15:05;;;;;;;29.10;23.38;;;0.80;99.90;;;;;;6273277;22;20034;-79
2023/03/09 03:17:31;;;;;;;30.15;23.52;;;0.90;99.90;;;;;;6273905;22;20074;-80
2023/03/09 03:19:57;;;;;;;28.88;22.15;;;0.90;99.90;;;;;;6246783;22;20391;-79
2023/03/09 03:22:23;;;;;;;30.02;22.40;;;0.90;99.90;;;;;;6221540;22;20011;-79
2023/03/09 03:24:49;;;;;;;31.42;23.33;;;0.90;99.90;;;;;;6273874;22;20090;-79
2023/03/09 03:27:15;;;;;;;29.30;22.45;;;0.90;99.90;;;;;;6246786;22;20035;-79
2023/03/09 03:29:41;;;;;;;30.73;23.17;;;0.90;99.90;;;;;;6246066;22;20007;-79
2023/03/09 03:32:07;;;;;;;31.25;23.25;;;1.00;99.90;;;;;;6273776;22;20011;-79
2023/03/09 03:34:32;;;;;;;30.98;23.10;;;1.00;99.90;;;;;;6247266;22;20019;-79
2023/03/09 03:36:58;;;;;;;33.97;24.05;;;1.00;99.90;;;;;;6246680;22;20042;-79
2023/03/09 03:39:24;;;;;;;28.45;22.23;;;1.00;99.90;;;;;;6221398;22;20316;-80
2023/03/09 03:41:49;;;;;;;29.73;23.25;;;1.00;99.90;;;;;;6246787;22;20038;-79
2023/03/09 03:44:15;;;;;;;29.13;23.50;;;0.90;99.90;;;;;;6220651;22;20422;-79
2023/03/09 03:46:41;;;;;;;29.08;22.88;;;1.00;99.90;;;;;;6273989;22;20003;-79
2023/03/09 03:49:06;;;;;;;28.90;22.77;;;1.00;99.90;;;;;;6246507;22;20045;-79
2023/03/09 03:51:32;;;;;;;31.85;23.70;;;1.00;99.90;;;;;;6246571;22;20014;-79
2023/03/09 03:53:57;;;;;;;29.08;23.40;;;1.00;99.90;;;;;;6273930;22;20084;-79
2023/03/09 03:56:23;;;;;;;28.75;23.35;;;1.10;99.90;;;;;;6246417;22;20411;-79
2023/03/09 03:58:49;;;;;;;32.33;23.92;;;1.00;99.90;;;;;;6246255;22;20330;-79
2023/03/09 04:01:14;;;;;;;32.33;24.10;;;1.10;99.90;;;;;;6221066;22;20338;-79
2023/03/09 04:03:40;;;;;;;31.55;24.23;;;1.00;99.90;;;;;;6273991;22;20011;-79
2023/03/09 04:06:06;;;;;;;30.10;24.27;;;1.10;99.90;;;;;;6246800;22;20393;-79
2023/03/09 04:08:32;;;;;;;29.65;23.33;;;1.10;99.90;;;;;;6246837;22;20053;-79
2023/03/09 04:10:57;;;;;;;31.45;24.48;;;1.10;99.90;;;;;;6273849;22;20007;-79
2023/03/09 04:13:23;;;;;;;34.15;24.02;;;1.10;99.90;;;;;;6246097;22;20016;-79
2023/03/09 04:15:49;;;;;;;32.15;23.90;;;1.10;99.90;;;;;;6273701;22;20003;-79
2023/03/09 04:18:15;;;;;;;32.45;25.23;;;1.10;99.90;;;;;;6221209;22;20051;-80
2023/03/09 04:20:41;;;;;;;34.20;25.58;;;1.10;99.90;;;;;;6246463;22;20344;-79
2023/03/09 04:23:08;;;;;;;33.15;26.27;;;1.10;99.90;;;;;;6221103;22;20018;-79
2023/03/09 04:25:34;;;;;;;35.38;26.42;;;1.10;99.90;;;;;;6273888;22;20011;-79
2023/03/09 04:28:00;;;;;;;31.38;24.88;;;1.10;99.90;;;;;;6245769;22;20421;-79
2023/03/09 04:30:25;;;;;;;37.60;26.55;;;1.10;99.90;;;;;;6246295;22;20016;-77
2023/03/09 04:32:51;;;;;;;36.35;25.83;;;1.10;99.90;;;;;;6246237;22;20026;-79
2023/03/09 04:35:17;;;;;;;34.33;26.08;;;1.10;99.90;;;;;;6221150;22;20040;-80
2023/03/09 04:37:43;;;;;;;36.92;27.40;;;1.10;99.90;;;;;;6220763;22;20399;-79
2023/03/09 04:40:10;;;;;;;37.22;26.85;;;1.20;99.90;;;;;;6246526;22;20054;-79
2023/03/09 04:42:36;;;;;;;36.50;26.88;;;1.10;99.90;;;;;;6246051;22;20496;-79
2023/03/09 04:45:03;;;;;;;38.72;28.70;;;1.10;99.90;;;;;;6220773;22;20090;-79
2023/03/09 04:47:28;;;;;;;37.78;27.75;;;1.00;99.90;;;;;;6221256;22;20026;-79
2023/03/09 04:49:54;;;;;;;39.05;27.92;;;1.00;99.90;;;;;;6248215;22;20020;-79
2023/03/09 04:52:20;;;;;;;38.10;28.15;;;1.00;99.90;;;;;;6222959;22;20081;-79
2023/03/09 04:54:47;;;;;;;38.53;27.33;;;1.40;99.90;;;;;;6248125;22;20342;-80
2023/03/09 04:57:12;;;;;;;40.00;29.55;;;1.00;99.90;;;;;;6248091;22;20022;-79
2023/03/09 04:59:38;;;;;;;39.47;29.50;;;1.00;99.90;;;;;;6222878;22;20095;-79
2023/03/09 05:02:04;;;;;;;40.08;28.33;;;1.00;99.90;;;;;;6222890;22;20007;-79
2023/03/09 05:04:29;;;;;;;38.60;28.77;;;1.00;99.90;;;;;;6248739;22;20093;-79
2023/03/09 05:06:55;;;;;;;39.38;28.73;;;1.30;99.90;;;;;;6248412;22;20365;-79
2023/03/09 05:09:21;;;;;;;42.55;29.38;;;1.00;99.90;;;;;;6274876;22;20012;-78
2023/03/09 05:11:51;;;;;;;38.75;27.45;;;0.90;99.90;;;;;;6248337;22;20012;-78
2023/03/09 05:14:18;;;;;;;42.00;29.05;;;1.00;99.90;;;;;;6247884;22;20430;-78
2023/03/09 05:16:44;;;;;;;37.78;27.10;;;1.00;99.90;;;;;;6247752;22;20015;-79
2023/03/09 05:19:10;;;;;;;36.83;26.77;;;1.00;99.90;;;;;;6222660;22;20077;-78
2023/03/09 05:21:36;;;;;;;35.78;25.50;;;0.90;99.90;;;;;;6247905;22;20015;-78
2023/03/09 05:24:03;;;;;;;32.72;23.83;;;0.90;99.90;;;;;;6274808;22;20015;-79
2023/03/09 05:26:29;;;;;;;31.35;24.20;;;0.90;99.90;;;;;;6222481;22;20012;-79
2023/03/09 05:28:54;;;;;;;31.65;23.77;;;1.00;99.90;;;;;;6275535;22;20086;-78
2023/03/09 05:31:20;;;;;;;30.45;21.50;;;0.90;99.90;;;;;;6275159;22;20039;-79
2023/03/09 05:33:46;;;;;;;30.95;22.77;;;0.90;99.90;;;;;;6247882;22;20022;-78
2023/03/09 05:36:20;;;;;;;31.98;24.20;;;1.00;99.90;;;;;;6222561;22;20019;-79
2023/03/09 05:38:47;;;;;;;70.25;58.63;;;0.90;99.90;;;;;;6221751;22;20016;-79
2023/03/09 05:41:13;;;;;;;86.72;63.78;;;0.90;99.90;;;;;;6275283;22;20003;-79
2023/03/09 05:43:41;;;;;;;57.80;42.53;;;0.90;99.90;;;;;;6247729;22;20106;-79
2023/03/09 05:46:09;;;;;;;38.72;31.35;;;0.90;99.90;;;;;;6222424;22;20004;-79
2023/03/09 05:48:35;;;;;;;66.28;58.28;;;0.90;99.90;;;;;;6247506;22;20462;-79
2023/03/09 05:51:01;;;;;;;33.13;25.35;;;0.90;99.90;;;;;;6247758;22;20307;-79
2023/03/09 05:53:27;;;;;;;28.50;22.52;;;0.90;99.90;;;;;;6247217;22;20094;-78
2023/03/09 05:55:53;;;;;;;28.85;22.10;;;0.90;99.90;;;;;;6274886;22;20035;-79
2023/03/09 05:58:19;;;;;;;30.13;22.98;;;1.00;99.90;;;;;;6247382;22;20012;-79
2023/03/09 06:00:45;;;;;;;31.65;24.23;;;1.50;99.90;;;;;;6247330;22;20015;-80
2023/03/09 06:03:11;;;;;;;31.25;26.80;;;1.00;99.90;;;;;;6222382;22;20043;-79
2023/03/09 06:05:37;;;;;;;29.92;22.67;;;1.00;99.90;;;;;;6247786;22;20011;-79
2023/03/09 06:08:02;;;;;;;30.35;22.20;;;1.00;99.90;;;;;;6274452;22;20083;-79
2023/03/09 06:10:28;;;;;;;30.80;22.85;;;1.10;99.90;;;;;;6247511;22;20024;-79
2023/03/09 06:12:54;;;;;;;34.13;24.58;;;1.00;99.90;;;;;;6247628;22;20016;-79
2023/03/09 06:15:19;;;;;;;30.70;23.85;;;1.10;99.90;;;;;;6274798;22;20010;-79
2023/03/09 06:17:45;;;;;;;34.20;25.27;;;1.10;99.90;;;;;;6247494;22;20016;-79
2023/03/09 06:20:11;;;;;;;35.55;27.73;;;1.10;99.90;;;;;;6247710;22;20007;-79
2023/03/09 06:22:37;;;;;;;35.05;28.73;;;1.10;99.90;;;;;;6247017;22;20011;-79
2023/03/09 06:25:02;;;;;;;35.88;27.77;;;1.10;99.90;;;;;;6274961;22;20450;-79
2023/03/09 06:27:28;;;;;;;37.42;28.15;;;1.10;99.90;;;;;;6247360;22;20011;-79
2023/03/09 06:29:53;;;;;;;35.85;27.30;;;1.10;99.90;;;;;;6222399;22;20019;-79
2023/03/09 06:32:19;;;;;;;34.78;26.40;;;1.10;99.90;;;;;;6247125;22;20335;-79
2023/03/09 06:34:45;;;;;;;34.80;26.90;;;1.10;99.90;;;;;;6247095;22;20121;-79
2023/03/09 06:37:11;;;;;;;33.40;27.25;;;1.10;99.90;;;;;;6246271;22;20018;-79
2023/03/09 06:39:36;;;;;;;32.08;26.48;;;1.10;99.90;;;;;;6246862;22;20346;-79
2023/03/09 06:42:02;;;;;;;36.20;28.15;;;1.10;99.90;;;;;;6273894;22;20050;-79
2023/03/09 06:44:28;;;;;;;32.67;27.05;;;1.10;99.90;;;;;;6246913;22;20145;-79
2023/03/09 06:46:53;;;;;;;35.83;27.17;;;1.10;99.90;;;;;;6246984;22;20016;-79
2023/03/09 06:49:19;;;;;;;33.63;26.92;;;1.10;99.90;;;;;;6221805;22;20465;-78
2023/03/09 06:51:44;;;;;;;33.78;26.67;;;1.10;99.90;;;;;;6273415;22;20141;-79
2023/03/09 06:54:10;;;;;;;34.03;27.02;;;1.10;99.90;;;;;;6246908;22;20012;-78
2023/03/09 06:56:35;;;;;;;35.95;26.70;;;1.20;99.90;;;;;;6221358;22;20446;-78
2023/03/09 06:59:01;;;;;;;35.15;27.05;;;1.20;99.90;;;;;;6246862;22;20026;-79
2023/03/09 07:01:27;;;;;;;31.08;24.83;;;1.20;99.90;;;;;;6246859;22;20314;-79
2023/03/09 07:03:52;;;;;;;36.03;27.15;;;1.20;99.90;;;;;;6221575;22;20015;-79
2023/03/09 07:06:18;;;;;;;31.65;25.20;;;1.30;99.90;;;;;;6273765;22;20004;-79
2023/03/09 07:08:43;;;;;;;36.30;29.20;;;1.30;99.90;;;;;;6246935;22;20086;-79
2023/03/09 07:11:09;;;;;;;31.63;25.33;;;1.40;99.90;;;;;;6274251;22;20465;-79
2023/03/09 07:13:35;;;;;;;37.45;27.85;;;1.40;99.90;;;;;;6221312;22;20022;-79
2023/03/09 07:16:04;;;;;;;38.00;29.88;;;1.40;99.90;;;;;;6221287;22;20007;-80
2023/03/09 07:18:30;;;;;;;28.90;23.85;;;1.50;99.90;;;;;;6246814;22;20027;-79
2023/03/09 07:21:00;;;;;;;31.70;25.27;;;1.60;99.90;;;;;;6245985;22;20064;-79
2023/03/09 07:23:26;;;;;;;29.40;22.45;;;1.60;99.90;;;;;;6246471;22;20077;-79
2023/03/09 07:25:52;;;;;;;28.23;22.60;;;1.60;99.90;;;;;;6274039;22;20440;-79
2023/03/09 07:28:17;;;;;;;31.73;23.80;;;1.60;99.90;;;;;;6246497;22;20133;-79
2023/03/09 07:30:43;;;;;;;29.33;23.08;;;1.60;99.90;;;;;;6273820;22;20011;-78
2023/03/09 07:33:09;;;;;;;33.97;24.25;;;1.60;99.90;;;;;;6221343;22;20029;-79
2023/03/09 07:35:38;;;;;;;27.58;22.30;;;1.60;99.90;;;;;;6220777;22;20090;-79
2023/03/09 07:38:04;;;;;;;32.55;27.75;;;1.60;99.90;;;;;;6220848;22;20043;-79
2023/03/09 07:40:30;;;;;;;31.13;24.27;;;1.60;99.90;;;;;;6246357;22;20007;-79
2023/03/09 07:42:55;;;;;;;26.88;21.92;;;1.70;99.90;;;;;;6221041;22;20057;-79
2023/03/09 07:45:22;;;;;;;29.05;23.52;;;1.80;99.90;;;;;;6246762;22;20008;-79
2023/03/09 07:47:48;;;;;;;25.10;20.33;;;1.90;99.90;;;;;;6273806;22;20091;-79
2023/03/09 07:50:15;;;;;;;27.40;22.48;;;2.00;99.90;;;;;;6246215;22;20012;-79
2023/03/09 07:52:41;;;;;;;27.05;21.63;;;2.10;99.90;;;;;;6220704;22;20023;-79
2023/03/09 07:55:07;;;;;;;25.27;20.85;;;2.20;99.90;;;;;;6246022;22;20011;-79
2023/03/09 07:57:34;;;;;;;25.58;20.63;;;2.40;99.90;;;;;;6245951;22;20087;-79
2023/03/09 08:00:00;;;;;;;24.45;19.10;;;2.50;99.90;;;;;;6246238;22;20079;-79
2023/03/09 08:02:26;;;;;;;20.90;17.45;;;2.60;99.90;;;;;;6246428;22;20327;-79
2023/03/09 08:04:52;;;;;;;20.75;17.25;;;2.60;99.90;;;;;;6245482;22;20022;-79
2023/03/09 08:07:18;;;;;;;19.95;17.30;;;2.70;99.90;;;;;;6246517;22;20043;-79
2023/03/09 08:09:44;;;;;;;19.60;16.45;;;2.60;99.90;;;;;;6246171;22;20490;-79
2023/03/09 08:12:10;;;;;;;21.38;17.08;;;2.70;99.90;;;;;;6246172;22;20012;-79
2023/03/09 08:14:36;;;;;;;20.38;16.65;;;2.70;99.90;;;;;;6246086;22;20042;-79
2023/03/09 08:17:03;;;;;;;18.90;15.15;;;2.70;99.90;;;;;;6220864;22;20107;-79
2023/03/09 08:19:29;;;;;;;19.10;15.95;;;2.80;99.90;;;;;;6220288;22;20023;-79
2023/03/09 08:21:55;;;;;;;20.25;16.35;;;2.90;99.90;;;;;;6220481;22;20082;-79
2023/03/09 08:24:21;;;;;;;19.13;15.70;;;3.00;99.90;;;;;;6272948;22;20418;-79
2023/03/09 08:26:47;;;;;;;16.63;14.52;;;3.00;99.90;;;;;;6220864;22;20012;-79
2023/03/09 08:29:12;;;;;;;18.65;14.07;;;3.00;99.90;;;;;;6273125;22;20091;-79
2023/03/09 08:31:38;;;;;;;17.85;14.38;;;3.10;99.90;;;;;;6220325;22;20047;-79
2023/03/09 08:34:04;;;;;;;17.15;14.45;;;3.10;99.90;;;;;;6245716;22;20008;-79
2023/03/09 08:36:30;;;;;;;20.08;15.02;;;3.10;99.90;;;;;;6245996;22;20105;-79
2023/03/09 08:38:56;;;;;;;17.17;14.57;;;3.10;99.90;;;;;;6245539;22;20039;-79
2023/03/09 08:41:22;;;;;;;16.88;13.85;;;3.10;99.90;;;;;;6273365;22;20070;-79
2023/03/09 08:43:49;;;;;;;17.80;13.60;;;3.10;99.90;;;;;;6246179;22;20311;-79
2023/03/09 08:46:15;;;;;;;16.10;13.90;;;3.10;99.90;;;;;;6220386;22;20027;-79
2023/03/09 08:48:40;;;;;;;16.80;14.38;;;3.10;99.90;;;;;;6272799;22;20008;-79
2023/03/09 08:51:08;;;;;;;18.52;14.00;;;3.00;99.90;;;;;;6245914;22;20008;-79
2023/03/09 08:53:35;;;;;;;19.00;14.10;;;3.00;99.90;;;;;;6273192;22;20331;-79
2023/03/09 08:56:11;;;;;;;18.25;14.50;;;3.10;99.90;;;;;;6245728;22;20273;-79
2023/03/09 08:58:37;;;;;;;18.55;14.40;;;3.10;99.90;;;;;;6273395;22;20095;-79
2023/03/09 09:01:08;;;;;;;17.58;15.13;;;3.00;99.90;;;;;;6220919;22;20007;-79
2023/03/09 09:03:35;;;;;;;17.20;14.88;;;3.10;99.90;;;;;;6245373;22;20047;-80
2023/03/09 09:06:10;;;;;;;17.80;14.85;;;3.10;99.90;;;;;;6220861;22;20506;-79
2023/03/09 09:08:36;;;;;;;19.85;15.88;;;3.00;99.90;;;;;;6245768;22;20056;-79
2023/03/09 09:11:10;;;;;;;17.67;14.65;;;3.00;99.90;;;;;;6220836;22;20047;-79
2023/03/09 09:13:37;;;;;;;19.17;15.48;;;3.00;99.90;;;;;;6246423;22;20022;-79
2023/03/09 09:16:05;;;;;;;20.17;16.08;;;3.10;99.90;;;;;;6272558;22;20414;-79
2023/03/09 09:18:32;;;;;;;18.67;15.40;;;3.20;99.90;;;;;;6273346;22;20016;-80
2023/03/09 09:20:58;;;;;;;19.50;15.52;;;3.40;99.90;;;;;;6245895;22;20007;-79
2023/03/09 09:23:23;;;;;;;18.65;15.32;;;3.50;99.90;;;;;;6246136;22;20012;-79
2023/03/09 09:25:56;;;;;;;18.00;15.45;;;3.80;99.90;;;;;;6245987;22;20458;-79
2023/03/09 09:28:22;;;;;;;18.25;15.00;;;3.80;99.90;;;;;;6220627;22;20326;-79
2023/03/09 09:30:59;;;;;;;17.42;15.15;;;3.80;99.90;;;;;;6245034;22;20012;-79
2023/03/09 09:33:27;;;;;;;18.85;15.63;;;3.90;99.90;;;;;;6273724;22;20019;-79
2023/03/09 09:36:09;;;;;;;17.08;14.68;;;3.80;99.90;;;;;;6247746;22;20000;-79
2023/03/09 09:38:35;;;;;;;19.45;15.20;;;3.70;99.90;;;;;;6247917;22;20012;-79
2023/03/09 09:41:12;;;;;;;17.95;14.93;;;3.80;99.90;;;;;;6275336;22;20012;-79
2023/03/09 09:43:39;;;;;;;17.15;14.10;;;3.80;99.90;;;;;;6247916;22;20114;-80
2023/03/09 09:46:09;;;;;;;18.20;14.80;;;3.90;99.90;;;;;;6274320;22;20438;-78
2023/03/09 09:48:35;;;;;;;15.68;12.90;;;3.90;99.90;;;;;;6247731;22;20095;-78
2023/03/09 09:51:14;;;;;;;17.65;14.90;;;4.00;99.90;;;;;;6222360;22;20025;-78
2023/03/09 09:54:17;;;;;;;17.48;14.60;;;4.50;99.90;;;;;;6275116;22;20102;-78
2023/03/09 09:56:57;;;;;;;19.55;14.68;;;4.40;99.90;;;;;;6247785;22;20512;-79
2023/03/09 09:59:41;;;;;;;16.58;13.43;;;4.50;99.90;;;;;;6247505;22;20003;-78
2023/03/09 10:02:10;;;;;;;18.20;14.73;;;4.60;99.90;;;;;;6247896;22;20079;-78
2023/03/09 10:04:50;;;;;;;16.23;14.43;;;4.80;99.90;;;;;;6247882;22;20050;-78
2023/03/09 10:07:19;;;;;;;16.48;14.02;;;4.80;99.90;;;;;;6222139;22;20090;-78
2023/03/09 10:10:10;;;;;;;16.50;13.70;;;4.30;99.90;;;;;;6247895;22;20342;-78
2023/03/09 10:12:38;;;;;;;16.65;14.50;;;4.30;99.90;;;;;;6247577;22;20004;-78
2023/03/09 10:15:22;;;;;;;17.23;14.45;;;4.20;99.90;;;;;;6247496;22;20130;-79
2023/03/09 10:17:59;;;;;;;15.02;13.20;;;4.30;99.90;;;;;;6222556;22;20458;-79
2023/03/09 10:20:33;;;;;;;15.52;13.77;;;4.20;99.90;;;;;;6247955;22;20047;-79
2023/03/09 10:22:59;;;;;;;16.20;13.98;;;4.20;99.90;;;;;;6247781;22;20007;-78
2023/03/09 10:25:26;;;;;;;17.83;14.07;;;4.30;99.90;;;;;;6274994;22;20038;-78
2023/03/09 10:27:51;;;;;;;17.35;13.77;;;4.40;99.90;;;;;;6222178;22;20015;-78
2023/03/09 10:30:46;;;;;;;16.77;14.35;;;4.40;99.90;;;;;;6246677;22;20011;-78
2023/03/09 10:33:33;;;;;;;15.70;13.57;;;4.60;99.90;;;;;;6222300;22;20016;-78
2023/03/09 10:36:06;;;;;;;18.77;13.80;;;4.50;99.90;;;;;;6247580;22;20016;-78
2023/03/09 10:38:32;;;;;;;15.85;13.70;;;4.50;99.90;;;;;;6247317;22;20011;-78
2023/03/09 10:40:58;;;;;;;15.75;13.88;;;4.60;99.90;;;;;;6274530;22;20449;-78
2023/03/09 10:43:28;;;;;;;15.63;13.30;;;4.50;99.90;;;;;;6221411;22;20004;-78
2023/03/09 10:46:00;;;;;;;15.07;13.45;;;4.40;99.90;;;;;;6246914;22;20313;-78
2023/03/09 10:48:26;;;;;;;16.17;13.43;;;4.50;99.90;;;;;;6274614;22;20016;-78
2023/03/09 10:50:57;;;;;;;15.52;13.85;;;4.60;99.90;;;;;;6247795;22;20016;-78
2023/03/09 10:53:42;;;;;;;15.35;13.60;;;4.60;99.90;;;;;;6246982;22;20043;-78
2023/03/09 10:56:24;;;;;;;14.80;13.10;;;4.60;99.90;;;;;;6274500;22;20017;-78
2023/03/09 10:59:06;;;;;;;13.98;12.45;;;4.40;99.90;;;;;;6246720;22;20438;-79
2023/03/09 11:01:37;;;;;;;14.45;12.80;;;4.30;99.90;;;;;;6247027;22;20407;-78
2023/03/09 11:04:22;;;;;;;17.90;14.48;;;4.30;99.90;;;;;;6274619;22;20010;-80
2023/03/09 11:06:59;;;;;;;16.00;13.60;;;4.50;99.90;;;;;;6274094;22;20008;-80
2023/03/09 11:09:30;;;;;;;14.93;13.32;;;4.40;99.90;;;;;;6274499;22;20098;-80
2023/03/09 11:12:27;;;;;;;16.55;13.40;;;4.40;99.90;;;;;;6246142;22;20474;-80
2023/03/09 11:15:02;;;;;;;15.18;13.60;;;4.30;99.90;;;;;;6221517;22;20008;-80
2023/03/09 11:17:33;;;;;;;15.65;13.95;;;4.50;99.90;;;;;;6221725;22;20004;-80
2023/03/09 11:20:23;;;;;;;14.40;12.90;;;4.30;99.90;;;;;;6247313;22;20015;-78
2023/03/09 11:23:13;;;;;;;15.00;13.15;;;4.40;99.90;;;;;;6274733;22;20023;-79
2023/03/09 11:26:03;;;;;;;16.02;13.70;;;4.40;99.90;;;;;;6246770;22;20447;-79
2023/03/09 11:28:57;;;;;;;14.52;13.02;;;4.50;99.90;;;;;;6221251;22;20102;-79
2023/03/09 11:31:40;;;;;;;16.45;13.45;;;4.50;99.90;;;;;;6274011;22;20347;-79
2023/03/09 11:34:11;;;;;;;15.05;12.85;;;4.70;99.90;;;;;;6246824;22;20101;-79
2023/03/09 11:36:44;;;;;;;14.07;12.05;;;4.90;99.90;;;;;;6221582;22;20042;-79
2023/03/09 11:39:21;;;;;;;13.43;12.02;;;4.90;99.90;;;;;;6274640;22;20018;-79
2023/03/09 11:41:49;;;;;;;12.77;11.45;;;5.00;99.90;;;;;;6273461;22;20129;-79
2023/03/09 11:44:36;;;;;;;13.23;11.77;;;5.10;99.90;;;;;;6274135;22;20077;-79
2023/03/09 11:47:25;;;;;;;13.88;11.50;;;5.30;99.90;;;;;;6273877;22;20439;-79
2023/03/09 11:49:56;;;;;;;12.80;11.45;;;5.40;99.90;;;;;;6252607;22;20099;-79
2023/03/09 11:52:46;;;;;;;14.07;12.27;;;5.70;99.90;;;;;;6274318;22;20258;-79
2023/03/09 11:55:15;;;;;;;13.45;12.05;;;5.40;99.90;;;;;;6273738;22;20011;-79
2023/03/09 11:57:48;;;;;;;13.20;11.85;;;5.50;99.90;;;;;;6273978;22;20062;-79
2023/03/09 12:00:18;;;;;;;14.02;11.20;;;5.60;99.90;;;;;;6246664;22;20012;-79
2023/03/09 12:03:00;;;;;;;12.80;11.50;;;5.50;99.90;;;;;;6274061;22;20057;-79
2023/03/09 12:05:33;;;;;;;14.10;12.13;;;5.30;99.90;;;;;;6221676;22;20043;-79
2023/03/09 12:08:06;;;;;;;14.10;12.52;;;5.30;99.90;;;;;;6274097;22;20007;-79
2023/03/09 12:11:00;;;;;;;13.88;12.38;;;5.40;99.90;;;;;;6273489;22;20012;-79
2023/03/09 12:13:30;;;;;;;;;;;5.20;99.90;;;;;;6274448;22;20015;-79
2023/03/09 12:16:19;;;;;;;15.80;13.18;;;5.10;99.90;;;;;;6273596;22;20286;-79
2023/03/09 12:18:58;;;;;;;15.18;13.20;;;5.00;99.90;;;;;;6246329;22;20047;-79
2023/03/09 12:21:33;;;;;;;13.95;12.30;;;5.10;99.90;;;;;;6274161;22;20132;-79
2023/03/09 12:24:22;;;;;;;15.65;13.65;;;5.00;99.90;;;;;;6246862;22;20078;-79
2023/03/09 12:27:12;;;;;;;14.20;12.40;;;4.90;99.90;;;;;;6256920;22;20082;-79
2023/03/09 12:30:00;;;;;;;14.40;12.23;;;4.90;99.90;;;;;;6273797;22;20014;-79
2023/03/09 12:32:25;;;;;;;13.85;12.40;;;5.00;99.90;;;;;;6200231;22;20106;-79
2023/03/09 12:34:56;;;;;;;14.02;12.63;;;4.90;99.90;;;;;;6273892;22;20180;-78
2023/03/09 12:37:31;;;;;;;13.60;12.20;;;5.10;99.90;;;;;;6220778;22;20019;-79
2023/03/09 12:40:20;;;;;;;14.52;13.00;;;5.20;99.90;;;;;;6273154;22;20051;-79
2023/03/09 12:42:47;;;;;;;13.90;12.50;;;5.00;99.90;;;;;;6273469;22;20018;-79
2023/03/09 12:45:16;;;;;;;13.80;12.40;;;5.20;99.90;;;;;;6246309;22;20012;-79
2023/03/09 12:47:49;;;;;;;13.75;12.20;;;5.00;99.90;;;;;;6246250;22;20023;-79
2023/03/09 12:50:49;;;;;;;13.02;11.35;;;5.00;99.90;;;;;;6246275;22;20019;-79